Airfield :
LOGIN :

Register | Disclaimer

   EN    FR    IT 

 










Legend :    VFR   Marginal VFR   IFR   Intensive IFR   Very Intensive IFR
Visi :
Ceiling :
>= 8 km
>= 3000ft
5 to 8 km
1000 to 3000 ft
1500m to 5 km
500 to 1000 ft
800 to 1500m
200 to 500 ft
< 800m
< 200 ft
Symbols :   Thunderstorms  Fog  Heavy snow  Heavy precipitations  Wind > 20 kt
SIGMETs :     Misc.  Thunderstorms  Icing  Turbulence  Mountain Waves  Volcanic Ashes







- Airport Elevation : 309 ft
- IATA code : FNI
- Download approach charts


LFTW - Nîmes Garons

CURRENT METAR :
  • 252130Z AUTO VRB02KT CAVOK 18/16 Q1016

EXPIRED METARs :
  • 252100Z AUTO 26004KT CAVOK 18/16 Q1016
  • 252030Z AUTO 24003KT CAVOK 19/16 Q1015
  • 252000Z AUTO 23004KT CAVOK 20/15 Q1015
  • 251930Z AUTO 23004KT 200V260 CAVOK 20/16 Q1015
  • 251900Z AUTO 23005KT CAVOK 21/16 Q1015 NOSIG

TAF TAF LFTW
Valid from the 25 at 15:00 until the 26 at 15:00 UTC


251400Z 2515/2615 07012KT CAVOK
BECMG 2515/2517 18010KT
BECMG 2520/2522 VRB03KT
BECMG 2601/2603 BKN014
BECMG 2607/2609 SCT020
BECMG 2610/2612 18010KT CAVOK
No reported NOTAMs for that airfield.



MET'MAP, your aeronautical weather chart ! - Copyright ORBIFLY December 2007 - Disclaimer

ORBIFLY MET'MAP TEAM :

Programming & Development : Alexandra Zaïnal
Concept & Development : Baudouin d'Aumeries
Co-Development & Prog : Marc-Olivier Méhu
Technical & hardware support : Manuel Goepfert

Contact : metmap@orbifly.com




SOURCES & CREDITS :

   NOAA